Terminal Aerodrome Forecast
Issued by NWS

Home | Current Version | Previous Version | Graphics & Text | Print | Product List | Glossary On
Versions: 1 2 3 4 5 6 7 8 9 10 11 12 13 14 15 16 17 18
000
FTUS43 KICT 241124
TAFRSL
TAF
KRSL 241124Z 2412/2512 32014KT P6SM SCT070
     FM242100 26009KT P6SM SKC
     FM250000 20008KT P6SM SCT200=

USA.gov is the U.S. government's official web portal to all federal, state and local government web resources and services.